sensor_id;sensor_type;location;lat;lon;timestamp;P1;durP1;ratioP1;P2;durP2;ratioP2
7501;SDS011;3792;47.740;7.606;2024-01-06T00:01:31;4.33;;;2.47;;
7501;SDS011;3792;47.740;7.606;2024-01-06T00:03:59;3.83;;;1.97;;
7501;SDS011;3792;47.740;7.606;2024-01-06T00:06:26;4.27;;;1.77;;
7501;SDS011;3792;47.740;7.606;2024-01-06T00:08:53;2.63;;;1.70;;
7501;SDS011;3792;47.740;7.606;2024-01-06T00:11:20;1.87;;;1.50;;
7501;SDS011;3792;47.740;7.606;2024-01-06T00:13:48;3.80;;;1.30;;
7501;SDS011;3792;47.740;7.606;2024-01-06T00:16:16;1.90;;;1.30;;
7501;SDS011;3792;47.740;7.606;2024-01-06T00:18:44;2.77;;;1.47;;
7501;SDS011;3792;47.740;7.606;2024-01-06T00:21:12;5.80;;;3.27;;
7501;SDS011;3792;47.740;7.606;2024-01-06T00:23:39;5.70;;;2.97;;
7501;SDS011;3792;47.740;7.606;2024-01-06T00:26:06;8.83;;;6.07;;
7501;SDS011;3792;47.740;7.606;2024-01-06T00:28:34;5.73;;;4.63;;
7501;SDS011;3792;47.740;7.606;2024-01-06T00:31:01;7.37;;;5.23;;
7501;SDS011;3792;47.740;7.606;2024-01-06T00:33:28;12.63;;;7.57;;
7501;SDS011;3792;47.740;7.606;2024-01-06T00:35:55;10.53;;;5.97;;
7501;SDS011;3792;47.740;7.606;2024-01-06T00:38:24;8.77;;;4.50;;
7501;SDS011;3792;47.740;7.606;2024-01-06T00:40:51;3.67;;;1.70;;
7501;SDS011;3792;47.740;7.606;2024-01-06T00:43:18;4.77;;;1.40;;
7501;SDS011;3792;47.740;7.606;2024-01-06T00:45:45;1.63;;;1.00;;
7501;SDS011;3792;47.740;7.606;2024-01-06T00:48:12;5.87;;;2.33;;
7501;SDS011;3792;47.740;7.606;2024-01-06T00:50:39;6.67;;;2.87;;
7501;SDS011;3792;47.740;7.606;2024-01-06T00:53:06;7.17;;;2.10;;
7501;SDS011;3792;47.740;7.606;2024-01-06T00:55:34;19.07;;;7.90;;
7501;SDS011;3792;47.740;7.606;2024-01-06T00:58:01;19.03;;;8.30;;
7501;SDS011;3792;47.740;7.606;2024-01-06T01:00:29;15.43;;;7.97;;
7501;SDS011;3792;47.740;7.606;2024-01-06T01:02:56;9.77;;;4.77;;
7501;SDS011;3792;47.740;7.606;2024-01-06T01:05:23;5.87;;;3.17;;
7501;SDS011;3792;47.740;7.606;2024-01-06T01:07:50;3.37;;;1.90;;
7501;SDS011;3792;47.740;7.606;2024-01-06T01:10:17;3.83;;;1.53;;
7501;SDS011;3792;47.740;7.606;2024-01-06T01:12:45;2.33;;;1.20;;
7501;SDS011;3792;47.740;7.606;2024-01-06T01:15:12;2.70;;;1.20;;
7501;SDS011;3792;47.740;7.606;2024-01-06T01:17:39;4.10;;;1.20;;
7501;SDS011;3792;47.740;7.606;2024-01-06T01:20:06;2.70;;;1.13;;
7501;SDS011;3792;47.740;7.606;2024-01-06T01:22:34;2.40;;;0.90;;
7501;SDS011;3792;47.740;7.606;2024-01-06T01:25:01;1.97;;;1.27;;
7501;SDS011;3792;47.740;7.606;2024-01-06T01:27:32;4.33;;;1.10;;
7501;SDS011;3792;47.740;7.606;2024-01-06T01:30:01;2.43;;;1.00;;
7501;SDS011;3792;47.740;7.606;2024-01-06T01:32:28;3.50;;;1.40;;
7501;SDS011;3792;47.740;7.606;2024-01-06T01:34:55;3.70;;;1.20;;
7501;SDS011;3792;47.740;7.606;2024-01-06T01:37:22;4.80;;;1.17;;
7501;SDS011;3792;47.740;7.606;2024-01-06T01:39:49;1.30;;;1.20;;
7501;SDS011;3792;47.740;7.606;2024-01-06T01:42:16;3.60;;;1.40;;
7501;SDS011;3792;47.740;7.606;2024-01-06T01:44:43;2.30;;;1.30;;
7501;SDS011;3792;47.740;7.606;2024-01-06T01:47:12;3.47;;;1.57;;
7501;SDS011;3792;47.740;7.606;2024-01-06T01:49:43;2.27;;;1.13;;
7501;SDS011;3792;47.740;7.606;2024-01-06T01:52:12;3.47;;;1.53;;
7501;SDS011;3792;47.740;7.606;2024-01-06T01:54:39;3.27;;;1.03;;
7501;SDS011;3792;47.740;7.606;2024-01-06T01:57:07;2.10;;;1.03;;
7501;SDS011;3792;47.740;7.606;2024-01-06T01:59:35;2.70;;;1.30;;
7501;SDS011;3792;47.740;7.606;2024-01-06T02:02:03;2.20;;;1.50;;
7501;SDS011;3792;47.740;7.606;2024-01-06T02:04:32;1.93;;;1.50;;
7501;SDS011;3792;47.740;7.606;2024-01-06T02:06:59;4.63;;;1.43;;
7501;SDS011;3792;47.740;7.606;2024-01-06T02:09:26;2.80;;;1.03;;
7501;SDS011;3792;47.740;7.606;2024-01-06T02:11:54;2.47;;;1.10;;
7501;SDS011;3792;47.740;7.606;2024-01-06T02:14:22;2.00;;;1.27;;
7501;SDS011;3792;47.740;7.606;2024-01-06T02:16:49;3.40;;;1.40;;
7501;SDS011;3792;47.740;7.606;2024-01-06T02:19:16;1.70;;;1.20;;
7501;SDS011;3792;47.740;7.606;2024-01-06T02:21:48;3.27;;;1.37;;
7501;SDS011;3792;47.740;7.606;2024-01-06T02:24:16;2.20;;;1.20;;
7501;SDS011;3792;47.740;7.606;2024-01-06T02:26:43;2.53;;;1.10;;
7501;SDS011;3792;47.740;7.606;2024-01-06T02:29:10;3.03;;;1.40;;
7501;SDS011;3792;47.740;7.606;2024-01-06T02:31:37;1.90;;;1.17;;
7501;SDS011;3792;47.740;7.606;2024-01-06T02:34:04;3.67;;;1.47;;
7501;SDS011;3792;47.740;7.606;2024-01-06T02:36:31;2.33;;;1.23;;
7501;SDS011;3792;47.740;7.606;2024-01-06T02:38:59;6.23;;;1.50;;
7501;SDS011;3792;47.740;7.606;2024-01-06T02:41:26;3.40;;;1.20;;
7501;SDS011;3792;47.740;7.606;2024-01-06T02:43:54;2.13;;;1.20;;
7501;SDS011;3792;47.740;7.606;2024-01-06T02:46:21;3.27;;;1.40;;
7501;SDS011;3792;47.740;7.606;2024-01-06T02:48:48;4.30;;;1.27;;
7501;SDS011;3792;47.740;7.606;2024-01-06T02:51:15;1.43;;;1.10;;
7501;SDS011;3792;47.740;7.606;2024-01-06T02:53:42;5.33;;;1.30;;
7501;SDS011;3792;47.740;7.606;2024-01-06T02:56:11;4.87;;;1.13;;
7501;SDS011;3792;47.740;7.606;2024-01-06T02:58:38;2.37;;;1.23;;
7501;SDS011;3792;47.740;7.606;2024-01-06T03:01:05;1.80;;;0.90;;
7501;SDS011;3792;47.740;7.606;2024-01-06T03:03:32;2.77;;;1.17;;
7501;SDS011;3792;47.740;7.606;2024-01-06T03:05:59;5.07;;;1.17;;
7501;SDS011;3792;47.740;7.606;2024-01-06T03:08:26;3.57;;;1.20;;
7501;SDS011;3792;47.740;7.606;2024-01-06T03:10:53;2.60;;;0.97;;
7501;SDS011;3792;47.740;7.606;2024-01-06T03:13:22;2.33;;;1.00;;
7501;SDS011;3792;47.740;7.606;2024-01-06T03:15:51;4.07;;;1.00;;
7501;SDS011;3792;47.740;7.606;2024-01-06T03:18:19;1.83;;;0.83;;
7501;SDS011;3792;47.740;7.606;2024-01-06T03:20:46;3.80;;;1.40;;
7501;SDS011;3792;47.740;7.606;2024-01-06T03:23:13;1.90;;;0.90;;
7501;SDS011;3792;47.740;7.606;2024-01-06T03:25:40;4.13;;;1.20;;
7501;SDS011;3792;47.740;7.606;2024-01-06T03:28:07;2.00;;;1.13;;
7501;SDS011;3792;47.740;7.606;2024-01-06T03:30:36;2.77;;;1.20;;
7501;SDS011;3792;47.740;7.606;2024-01-06T03:33:03;2.70;;;0.80;;
7501;SDS011;3792;47.740;7.606;2024-01-06T03:35:30;3.00;;;1.23;;
7501;SDS011;3792;47.740;7.606;2024-01-06T03:37:57;1.70;;;0.90;;
7501;SDS011;3792;47.740;7.606;2024-01-06T03:40:24;3.07;;;1.00;;
7501;SDS011;3792;47.740;7.606;2024-01-06T03:42:51;2.80;;;1.20;;
7501;SDS011;3792;47.740;7.606;2024-01-06T03:45:19;1.97;;;1.17;;
7501;SDS011;3792;47.740;7.606;2024-01-06T03:47:47;2.57;;;1.40;;
7501;SDS011;3792;47.740;7.606;2024-01-06T03:50:14;5.43;;;2.37;;
7501;SDS011;3792;47.740;7.606;2024-01-06T03:52:41;4.60;;;2.60;;
7501;SDS011;3792;47.740;7.606;2024-01-06T03:55:08;4.57;;;2.23;;
7501;SDS011;3792;47.740;7.606;2024-01-06T03:57:36;3.90;;;1.87;;
7501;SDS011;3792;47.740;7.606;2024-01-06T04:00:03;4.87;;;1.97;;
7501;SDS011;3792;47.740;7.606;2024-01-06T04:02:31;2.93;;;1.87;;
7501;SDS011;3792;47.740;7.606;2024-01-06T04:05:00;4.50;;;2.90;;
7501;SDS011;3792;47.740;7.606;2024-01-06T04:07:27;3.50;;;2.70;;
7501;SDS011;3792;47.740;7.606;2024-01-06T04:09:54;6.13;;;2.40;;
7501;SDS011;3792;47.740;7.606;2024-01-06T04:12:21;3.43;;;1.50;;
7501;SDS011;3792;47.740;7.606;2024-01-06T04:14:48;4.60;;;1.80;;
7501;SDS011;3792;47.740;7.606;2024-01-06T04:17:15;3.83;;;1.50;;
7501;SDS011;3792;47.740;7.606;2024-01-06T04:19:42;3.60;;;1.23;;
7501;SDS011;3792;47.740;7.606;2024-01-06T04:22:10;3.20;;;1.23;;
7501;SDS011;3792;47.740;7.606;2024-01-06T04:24:37;2.80;;;1.10;;
7501;SDS011;3792;47.740;7.606;2024-01-06T04:27:05;3.23;;;1.50;;
7501;SDS011;3792;47.740;7.606;2024-01-06T04:29:32;3.30;;;1.47;;
7501;SDS011;3792;47.740;7.606;2024-01-06T04:31:59;3.07;;;1.23;;
7501;SDS011;3792;47.740;7.606;2024-01-06T04:34:26;4.27;;;2.30;;
7501;SDS011;3792;47.740;7.606;2024-01-06T04:36:54;16.90;;;9.20;;
7501;SDS011;3792;47.740;7.606;2024-01-06T04:39:22;6.57;;;2.63;;
7501;SDS011;3792;47.740;7.606;2024-01-06T04:41:49;16.43;;;8.50;;
7501;SDS011;3792;47.740;7.606;2024-01-06T04:44:17;8.30;;;5.80;;
7501;SDS011;3792;47.740;7.606;2024-01-06T04:46:46;10.97;;;6.30;;
7501;SDS011;3792;47.740;7.606;2024-01-06T04:49:13;6.57;;;4.97;;
7501;SDS011;3792;47.740;7.606;2024-01-06T04:51:40;3.53;;;2.27;;
7501;SDS011;3792;47.740;7.606;2024-01-06T04:54:07;2.00;;;1.33;;
7501;SDS011;3792;47.740;7.606;2024-01-06T04:56:35;3.27;;;1.60;;
7501;SDS011;3792;47.740;7.606;2024-01-06T04:59:02;5.93;;;1.97;;
7501;SDS011;3792;47.740;7.606;2024-01-06T05:01:29;1.30;;;1.20;;
7501;SDS011;3792;47.740;7.606;2024-01-06T05:03:56;6.00;;;2.43;;
7501;SDS011;3792;47.740;7.606;2024-01-06T05:06:24;4.53;;;1.70;;
7501;SDS011;3792;47.740;7.606;2024-01-06T05:08:51;2.63;;;1.43;;
7501;SDS011;3792;47.740;7.606;2024-01-06T05:11:18;3.10;;;1.60;;
7501;SDS011;3792;47.740;7.606;2024-01-06T05:13:46;3.67;;;1.90;;
7501;SDS011;3792;47.740;7.606;2024-01-06T05:16:13;4.23;;;2.20;;
7501;SDS011;3792;47.740;7.606;2024-01-06T05:18:40;3.97;;;2.27;;
7501;SDS011;3792;47.740;7.606;2024-01-06T05:21:07;5.67;;;2.53;;
7501;SDS011;3792;47.740;7.606;2024-01-06T05:23:34;5.93;;;2.30;;
7501;SDS011;3792;47.740;7.606;2024-01-06T05:26:01;3.43;;;2.40;;
7501;SDS011;3792;47.740;7.606;2024-01-06T05:28:28;7.00;;;2.60;;
7501;SDS011;3792;47.740;7.606;2024-01-06T05:30:57;7.53;;;2.30;;
7501;SDS011;3792;47.740;7.606;2024-01-06T05:33:24;8.60;;;3.00;;
7501;SDS011;3792;47.740;7.606;2024-01-06T05:35:51;7.07;;;3.77;;
7501;SDS011;3792;47.740;7.606;2024-01-06T05:38:18;6.60;;;3.60;;
7501;SDS011;3792;47.740;7.606;2024-01-06T05:40:45;6.13;;;4.37;;
7501;SDS011;3792;47.740;7.606;2024-01-06T05:43:12;7.20;;;3.87;;
7501;SDS011;3792;47.740;7.606;2024-01-06T05:45:39;10.27;;;4.40;;
7501;SDS011;3792;47.740;7.606;2024-01-06T05:48:09;4.90;;;3.73;;
7501;SDS011;3792;47.740;7.606;2024-01-06T05:50:37;5.87;;;3.63;;
7501;SDS011;3792;47.740;7.606;2024-01-06T05:53:04;6.27;;;3.97;;
7501;SDS011;3792;47.740;7.606;2024-01-06T05:55:31;7.90;;;3.87;;
7501;SDS011;3792;47.740;7.606;2024-01-06T05:57:58;7.13;;;3.97;;
7501;SDS011;3792;47.740;7.606;2024-01-06T06:00:26;7.20;;;4.47;;
7501;SDS011;3792;47.740;7.606;2024-01-06T06:02:53;6.83;;;3.37;;
7501;SDS011;3792;47.740;7.606;2024-01-06T06:05:21;6.60;;;3.70;;
7501;SDS011;3792;47.740;7.606;2024-01-06T06:07:48;7.67;;;3.73;;
7501;SDS011;3792;47.740;7.606;2024-01-06T06:10:15;7.20;;;3.87;;
7501;SDS011;3792;47.740;7.606;2024-01-06T06:12:43;4.70;;;3.50;;
7501;SDS011;3792;47.740;7.606;2024-01-06T06:15:10;10.40;;;3.17;;
7501;SDS011;3792;47.740;7.606;2024-01-06T06:17:38;6.20;;;3.43;;
7501;SDS011;3792;47.740;7.606;2024-01-06T06:20:06;7.90;;;3.17;;
7501;SDS011;3792;47.740;7.606;2024-01-06T06:22:34;4.20;;;2.93;;
7501;SDS011;3792;47.740;7.606;2024-01-06T06:25:01;6.13;;;3.93;;
7501;SDS011;3792;47.740;7.606;2024-01-06T06:27:29;8.57;;;4.23;;
7501;SDS011;3792;47.740;7.606;2024-01-06T06:29:56;5.80;;;3.47;;
7501;SDS011;3792;47.740;7.606;2024-01-06T06:32:23;4.87;;;3.00;;
7501;SDS011;3792;47.740;7.606;2024-01-06T06:34:50;3.17;;;2.40;;
7501;SDS011;3792;47.740;7.606;2024-01-06T06:37:17;6.17;;;3.57;;
7501;SDS011;3792;47.740;7.606;2024-01-06T06:39:46;7.47;;;3.00;;
7501;SDS011;3792;47.740;7.606;2024-01-06T06:42:13;5.23;;;2.73;;
7501;SDS011;3792;47.740;7.606;2024-01-06T06:44:40;7.20;;;3.23;;
7501;SDS011;3792;47.740;7.606;2024-01-06T06:47:07;4.70;;;2.70;;
7501;SDS011;3792;47.740;7.606;2024-01-06T06:49:34;4.53;;;2.90;;
7501;SDS011;3792;47.740;7.606;2024-01-06T06:52:01;4.00;;;2.90;;
7501;SDS011;3792;47.740;7.606;2024-01-06T06:54:29;4.63;;;3.07;;
7501;SDS011;3792;47.740;7.606;2024-01-06T06:56:57;6.23;;;3.10;;
7501;SDS011;3792;47.740;7.606;2024-01-06T06:59:24;4.80;;;2.83;;
7501;SDS011;3792;47.740;7.606;2024-01-06T07:01:51;9.00;;;2.80;;
7501;SDS011;3792;47.740;7.606;2024-01-06T07:04:18;4.77;;;3.00;;
7501;SDS011;3792;47.740;7.606;2024-01-06T07:06:45;3.10;;;2.80;;
7501;SDS011;3792;47.740;7.606;2024-01-06T07:09:12;5.43;;;3.47;;
7501;SDS011;3792;47.740;7.606;2024-01-06T07:11:39;6.37;;;3.37;;
7501;SDS011;3792;47.740;7.606;2024-01-06T07:14:08;33.37;;;17.40;;
7501;SDS011;3792;47.740;7.606;2024-01-06T07:16:35;37.40;;;18.13;;
7501;SDS011;3792;47.740;7.606;2024-01-06T07:19:02;12.80;;;7.90;;
7501;SDS011;3792;47.740;7.606;2024-01-06T07:21:30;4.67;;;2.97;;
7501;SDS011;3792;47.740;7.606;2024-01-06T07:23:57;6.67;;;2.90;;
7501;SDS011;3792;47.740;7.606;2024-01-06T07:26:26;3.80;;;3.13;;
7501;SDS011;3792;47.740;7.606;2024-01-06T07:28:53;5.93;;;2.70;;
7501;SDS011;3792;47.740;7.606;2024-01-06T07:31:21;6.77;;;2.80;;
7501;SDS011;3792;47.740;7.606;2024-01-06T07:33:48;7.83;;;2.77;;
7501;SDS011;3792;47.740;7.606;2024-01-06T07:36:15;6.17;;;2.70;;
7501;SDS011;3792;47.740;7.606;2024-01-06T07:38:43;13.40;;;6.30;;
7501;SDS011;3792;47.740;7.606;2024-01-06T07:41:11;4.27;;;3.63;;
7501;SDS011;3792;47.740;7.606;2024-01-06T07:43:38;8.43;;;3.10;;
7501;SDS011;3792;47.740;7.606;2024-01-06T07:46:05;5.80;;;2.90;;
7501;SDS011;3792;47.740;7.606;2024-01-06T07:48:35;3.37;;;2.73;;
7501;SDS011;3792;47.740;7.606;2024-01-06T07:51:03;5.37;;;3.47;;
7501;SDS011;3792;47.740;7.606;2024-01-06T07:53:31;9.63;;;3.63;;
7501;SDS011;3792;47.740;7.606;2024-01-06T07:55:58;4.57;;;3.30;;
7501;SDS011;3792;47.740;7.606;2024-01-06T07:58:25;6.17;;;3.77;;
7501;SDS011;3792;47.740;7.606;2024-01-06T08:00:53;6.60;;;3.20;;
7501;SDS011;3792;47.740;7.606;2024-01-06T08:03:22;7.67;;;3.17;;
7501;SDS011;3792;47.740;7.606;2024-01-06T08:05:51;7.70;;;3.37;;
7501;SDS011;3792;47.740;7.606;2024-01-06T08:08:40;6.80;;;3.27;;
7501;SDS011;3792;47.740;7.606;2024-01-06T08:11:17;4.40;;;2.63;;
7501;SDS011;3792;47.740;7.606;2024-01-06T08:13:46;6.00;;;2.80;;
7501;SDS011;3792;47.740;7.606;2024-01-06T08:16:13;7.87;;;3.67;;
7501;SDS011;3792;47.740;7.606;2024-01-06T08:18:41;4.93;;;2.93;;
7501;SDS011;3792;47.740;7.606;2024-01-06T08:21:09;7.53;;;2.93;;
7501;SDS011;3792;47.740;7.606;2024-01-06T08:23:37;4.03;;;2.60;;
7501;SDS011;3792;47.740;7.606;2024-01-06T08:26:07;6.93;;;2.60;;
7501;SDS011;3792;47.740;7.606;2024-01-06T08:28:35;5.63;;;2.60;;
7501;SDS011;3792;47.740;7.606;2024-01-06T08:31:02;3.53;;;2.47;;
7501;SDS011;3792;47.740;7.606;2024-01-06T08:33:30;10.83;;;5.30;;
7501;SDS011;3792;47.740;7.606;2024-01-06T08:35:57;11.00;;;7.37;;
7501;SDS011;3792;47.740;7.606;2024-01-06T08:38:26;11.27;;;6.50;;
7501;SDS011;3792;47.740;7.606;2024-01-06T08:40:53;9.77;;;5.63;;
7501;SDS011;3792;47.740;7.606;2024-01-06T08:43:20;8.00;;;5.07;;
7501;SDS011;3792;47.740;7.606;2024-01-06T08:45:47;14.23;;;8.97;;
7501;SDS011;3792;47.740;7.606;2024-01-06T08:48:16;15.13;;;10.13;;
7501;SDS011;3792;47.740;7.606;2024-01-06T08:50:44;11.70;;;7.40;;
7501;SDS011;3792;47.740;7.606;2024-01-06T08:53:11;4.87;;;3.97;;
7501;SDS011;3792;47.740;7.606;2024-01-06T08:55:40;6.07;;;3.73;;
7501;SDS011;3792;47.740;7.606;2024-01-06T08:58:08;4.60;;;3.47;;
7501;SDS011;3792;47.740;7.606;2024-01-06T09:00:35;7.73;;;4.67;;
7501;SDS011;3792;47.740;7.606;2024-01-06T09:03:03;8.97;;;3.30;;
7501;SDS011;3792;47.740;7.606;2024-01-06T09:05:32;5.27;;;3.00;;
7501;SDS011;3792;47.740;7.606;2024-01-06T09:07:59;3.67;;;2.53;;
7501;SDS011;3792;47.740;7.606;2024-01-06T09:10:26;8.43;;;3.03;;
7501;SDS011;3792;47.740;7.606;2024-01-06T09:12:55;6.20;;;3.50;;
7501;SDS011;3792;47.740;7.606;2024-01-06T09:15:22;7.10;;;4.10;;
7501;SDS011;3792;47.740;7.606;2024-01-06T09:17:49;6.37;;;3.17;;
7501;SDS011;3792;47.740;7.606;2024-01-06T09:20:16;3.23;;;2.93;;
7501;SDS011;3792;47.740;7.606;2024-01-06T09:22:48;9.30;;;3.33;;
7501;SDS011;3792;47.740;7.606;2024-01-06T09:25:15;7.53;;;3.50;;
7501;SDS011;3792;47.740;7.606;2024-01-06T09:27:42;3.43;;;2.40;;
7501;SDS011;3792;47.740;7.606;2024-01-06T09:30:11;5.63;;;2.67;;
7501;SDS011;3792;47.740;7.606;2024-01-06T09:32:38;6.93;;;2.83;;
7501;SDS011;3792;47.740;7.606;2024-01-06T09:35:05;7.33;;;3.10;;
7501;SDS011;3792;47.740;7.606;2024-01-06T09:37:32;4.10;;;3.07;;
7501;SDS011;3792;47.740;7.606;2024-01-06T09:39:59;4.97;;;3.00;;
7501;SDS011;3792;47.740;7.606;2024-01-06T09:42:26;4.60;;;3.20;;
7501;SDS011;3792;47.740;7.606;2024-01-06T09:44:54;5.33;;;2.77;;
7501;SDS011;3792;47.740;7.606;2024-01-06T09:47:23;7.03;;;3.60;;
7501;SDS011;3792;47.740;7.606;2024-01-06T09:49:53;6.00;;;2.83;;
7501;SDS011;3792;47.740;7.606;2024-01-06T09:52:25;5.70;;;2.97;;
7501;SDS011;3792;47.740;7.606;2024-01-06T09:54:53;5.67;;;3.17;;
7501;SDS011;3792;47.740;7.606;2024-01-06T09:57:21;5.10;;;3.00;;
7501;SDS011;3792;47.740;7.606;2024-01-06T09:59:48;5.73;;;3.30;;
7501;SDS011;3792;47.740;7.606;2024-01-06T10:02:16;6.63;;;3.13;;
7501;SDS011;3792;47.740;7.606;2024-01-06T10:04:47;4.67;;;3.43;;
7501;SDS011;3792;47.740;7.606;2024-01-06T10:07:14;7.80;;;3.47;;
7501;SDS011;3792;47.740;7.606;2024-01-06T10:09:41;4.80;;;3.77;;
7501;SDS011;3792;47.740;7.606;2024-01-06T10:12:08;11.90;;;5.83;;
7501;SDS011;3792;47.740;7.606;2024-01-06T10:14:35;5.97;;;3.53;;
7501;SDS011;3792;47.740;7.606;2024-01-06T10:17:05;9.27;;;3.97;;
7501;SDS011;3792;47.740;7.606;2024-01-06T10:19:33;5.43;;;3.53;;
7501;SDS011;3792;47.740;7.606;2024-01-06T10:22:03;8.17;;;4.60;;
7501;SDS011;3792;47.740;7.606;2024-01-06T10:24:30;6.53;;;3.40;;
7501;SDS011;3792;47.740;7.606;2024-01-06T10:26:57;6.87;;;3.17;;
7501;SDS011;3792;47.740;7.606;2024-01-06T10:29:26;6.77;;;2.97;;
7501;SDS011;3792;47.740;7.606;2024-01-06T10:31:53;4.60;;;2.87;;
7501;SDS011;3792;47.740;7.606;2024-01-06T10:34:20;6.13;;;4.10;;
7501;SDS011;3792;47.740;7.606;2024-01-06T10:36:48;7.03;;;4.10;;
7501;SDS011;3792;47.740;7.606;2024-01-06T10:39:18;6.23;;;3.70;;
7501;SDS011;3792;47.740;7.606;2024-01-06T10:41:47;10.97;;;4.40;;
7501;SDS011;3792;47.740;7.606;2024-01-06T10:44:16;7.07;;;3.90;;
7501;SDS011;3792;47.740;7.606;2024-01-06T10:46:43;4.50;;;3.50;;
7501;SDS011;3792;47.740;7.606;2024-01-06T10:49:11;7.50;;;3.67;;
7501;SDS011;3792;47.740;7.606;2024-01-06T10:51:38;7.63;;;3.40;;
7501;SDS011;3792;47.740;7.606;2024-01-06T10:54:05;9.10;;;4.33;;
7501;SDS011;3792;47.740;7.606;2024-01-06T10:56:36;9.30;;;4.00;;
7501;SDS011;3792;47.740;7.606;2024-01-06T10:59:04;4.57;;;2.80;;
7501;SDS011;3792;47.740;7.606;2024-01-06T11:01:32;6.90;;;3.50;;
7501;SDS011;3792;47.740;7.606;2024-01-06T11:04:03;7.23;;;3.20;;
7501;SDS011;3792;47.740;7.606;2024-01-06T11:06:38;6.93;;;3.23;;
7501;SDS011;3792;47.740;7.606;2024-01-06T11:09:07;6.67;;;3.40;;
7501;SDS011;3792;47.740;7.606;2024-01-06T11:11:40;8.67;;;3.33;;
7501;SDS011;3792;47.740;7.606;2024-01-06T11:14:18;9.80;;;4.17;;
7501;SDS011;3792;47.740;7.606;2024-01-06T11:16:47;7.13;;;3.97;;
7501;SDS011;3792;47.740;7.606;2024-01-06T11:22:21;6.83;;;3.97;;
7501;SDS011;3792;47.740;7.606;2024-01-06T11:24:55;7.10;;;3.20;;
7501;SDS011;3792;47.740;7.606;2024-01-06T11:27:25;5.83;;;4.10;;
7501;SDS011;3792;47.740;7.606;2024-01-06T11:29:54;6.00;;;3.23;;
7501;SDS011;3792;47.740;7.606;2024-01-06T11:32:26;9.60;;;3.30;;
7501;SDS011;3792;47.740;7.606;2024-01-06T11:34:55;6.40;;;3.50;;
7501;SDS011;3792;47.740;7.606;2024-01-06T11:37:34;4.77;;;3.00;;
7501;SDS011;3792;47.740;7.606;2024-01-06T11:40:03;5.33;;;3.13;;
7501;SDS011;3792;47.740;7.606;2024-01-06T11:42:36;6.27;;;2.83;;
7501;SDS011;3792;47.740;7.606;2024-01-06T11:45:04;6.27;;;2.83;;
7501;SDS011;3792;47.740;7.606;2024-01-06T11:47:32;5.57;;;2.97;;
7501;SDS011;3792;47.740;7.606;2024-01-06T11:50:00;8.43;;;4.80;;
7501;SDS011;3792;47.740;7.606;2024-01-06T11:52:29;5.93;;;4.30;;
7501;SDS011;3792;47.740;7.606;2024-01-06T11:54:57;15.40;;;6.37;;
7501;SDS011;3792;47.740;7.606;2024-01-06T11:57:25;12.00;;;4.70;;
7501;SDS011;3792;47.740;7.606;2024-01-06T11:59:54;13.23;;;7.57;;
7501;SDS011;3792;47.740;7.606;2024-01-06T12:02:22;12.43;;;5.00;;
7501;SDS011;3792;47.740;7.606;2024-01-06T12:04:49;6.93;;;4.20;;
7501;SDS011;3792;47.740;7.606;2024-01-06T12:07:17;11.47;;;5.13;;
7501;SDS011;3792;47.740;7.606;2024-01-06T12:09:45;10.83;;;5.07;;
7501;SDS011;3792;47.740;7.606;2024-01-06T12:12:14;10.47;;;4.70;;
7501;SDS011;3792;47.740;7.606;2024-01-06T12:14:42;6.83;;;3.97;;
7501;SDS011;3792;47.740;7.606;2024-01-06T12:17:12;6.77;;;4.10;;
7501;SDS011;3792;47.740;7.606;2024-01-06T12:19:39;6.50;;;4.00;;
7501;SDS011;3792;47.740;7.606;2024-01-06T12:22:09;5.73;;;3.30;;
7501;SDS011;3792;47.740;7.606;2024-01-06T12:24:38;8.27;;;4.03;;
7501;SDS011;3792;47.740;7.606;2024-01-06T12:27:06;7.87;;;3.47;;
7501;SDS011;3792;47.740;7.606;2024-01-06T12:29:36;6.47;;;3.30;;
7501;SDS011;3792;47.740;7.606;2024-01-06T12:32:04;8.03;;;4.90;;
7501;SDS011;3792;47.740;7.606;2024-01-06T12:34:34;7.27;;;4.90;;
7501;SDS011;3792;47.740;7.606;2024-01-06T12:37:02;9.43;;;5.10;;
7501;SDS011;3792;47.740;7.606;2024-01-06T12:39:29;6.87;;;3.90;;
7501;SDS011;3792;47.740;7.606;2024-01-06T12:41:57;6.67;;;3.33;;
7501;SDS011;3792;47.740;7.606;2024-01-06T12:44:25;5.93;;;2.87;;
7501;SDS011;3792;47.740;7.606;2024-01-06T12:46:53;9.70;;;4.23;;
7501;SDS011;3792;47.740;7.606;2024-01-06T12:49:20;7.97;;;3.63;;
7501;SDS011;3792;47.740;7.606;2024-01-06T12:51:49;5.37;;;3.27;;
7501;SDS011;3792;47.740;7.606;2024-01-06T12:54:16;4.33;;;3.10;;
7501;SDS011;3792;47.740;7.606;2024-01-06T12:56:43;9.53;;;5.37;;
7501;SDS011;3792;47.740;7.606;2024-01-06T12:59:10;10.20;;;6.27;;
7501;SDS011;3792;47.740;7.606;2024-01-06T13:01:37;8.63;;;5.30;;
7501;SDS011;3792;47.740;7.606;2024-01-06T13:04:06;6.17;;;3.93;;
7501;SDS011;3792;47.740;7.606;2024-01-06T13:06:41;5.60;;;3.87;;
7501;SDS011;3792;47.740;7.606;2024-01-06T13:09:10;7.10;;;3.60;;
7501;SDS011;3792;47.740;7.606;2024-01-06T13:11:41;7.23;;;4.13;;
7501;SDS011;3792;47.740;7.606;2024-01-06T13:14:12;6.63;;;4.10;;
7501;SDS011;3792;47.740;7.606;2024-01-06T13:16:40;4.97;;;3.63;;
7501;SDS011;3792;47.740;7.606;2024-01-06T13:19:07;7.23;;;3.60;;
7501;SDS011;3792;47.740;7.606;2024-01-06T13:21:34;6.50;;;3.30;;
7501;SDS011;3792;47.740;7.606;2024-01-06T13:24:04;5.33;;;3.73;;
7501;SDS011;3792;47.740;7.606;2024-01-06T13:26:33;8.03;;;5.00;;
7501;SDS011;3792;47.740;7.606;2024-01-06T13:29:01;9.97;;;4.97;;
7501;SDS011;3792;47.740;7.606;2024-01-06T13:31:28;8.07;;;4.90;;
7501;SDS011;3792;47.740;7.606;2024-01-06T13:33:56;6.53;;;4.80;;
7501;SDS011;3792;47.740;7.606;2024-01-06T13:36:23;7.20;;;4.50;;
7501;SDS011;3792;47.740;7.606;2024-01-06T13:38:50;7.77;;;4.27;;
7501;SDS011;3792;47.740;7.606;2024-01-06T13:41:17;4.93;;;3.67;;
7501;SDS011;3792;47.740;7.606;2024-01-06T13:43:45;7.10;;;3.80;;
7501;SDS011;3792;47.740;7.606;2024-01-06T13:46:12;6.23;;;4.30;;
7501;SDS011;3792;47.740;7.606;2024-01-06T13:48:40;5.83;;;3.93;;
7501;SDS011;3792;47.740;7.606;2024-01-06T13:51:07;6.50;;;4.13;;
7501;SDS011;3792;47.740;7.606;2024-01-06T13:53:34;10.23;;;4.13;;
7501;SDS011;3792;47.740;7.606;2024-01-06T13:56:01;5.43;;;3.73;;
7501;SDS011;3792;47.740;7.606;2024-01-06T13:58:29;8.77;;;4.93;;
7501;SDS011;3792;47.740;7.606;2024-01-06T14:00:57;13.67;;;6.33;;
7501;SDS011;3792;47.740;7.606;2024-01-06T14:03:24;15.50;;;5.87;;
7501;SDS011;3792;47.740;7.606;2024-01-06T14:05:51;9.37;;;5.73;;
7501;SDS011;3792;47.740;7.606;2024-01-06T14:08:19;8.13;;;5.67;;
7501;SDS011;3792;47.740;7.606;2024-01-06T14:10:46;9.80;;;5.90;;
7501;SDS011;3792;47.740;7.606;2024-01-06T14:13:13;7.97;;;4.97;;
7501;SDS011;3792;47.740;7.606;2024-01-06T14:15:40;7.20;;;4.93;;
7501;SDS011;3792;47.740;7.606;2024-01-06T14:18:08;7.60;;;4.67;;
7501;SDS011;3792;47.740;7.606;2024-01-06T14:20:37;6.93;;;4.57;;
7501;SDS011;3792;47.740;7.606;2024-01-06T14:23:05;7.03;;;4.00;;
7501;SDS011;3792;47.740;7.606;2024-01-06T14:25:33;9.13;;;4.50;;
7501;SDS011;3792;47.740;7.606;2024-01-06T14:28:01;11.47;;;5.93;;
7501;SDS011;3792;47.740;7.606;2024-01-06T14:30:31;7.47;;;4.07;;
7501;SDS011;3792;47.740;7.606;2024-01-06T14:32:58;9.93;;;4.27;;
7501;SDS011;3792;47.740;7.606;2024-01-06T14:35:26;10.40;;;5.43;;
7501;SDS011;3792;47.740;7.606;2024-01-06T14:37:53;7.33;;;4.87;;
7501;SDS011;3792;47.740;7.606;2024-01-06T14:40:21;7.63;;;4.40;;
7501;SDS011;3792;47.740;7.606;2024-01-06T14:42:49;9.13;;;5.57;;
7501;SDS011;3792;47.740;7.606;2024-01-06T14:45:16;8.43;;;5.37;;
7501;SDS011;3792;47.740;7.606;2024-01-06T14:47:44;10.33;;;5.80;;
7501;SDS011;3792;47.740;7.606;2024-01-06T14:50:12;11.60;;;7.03;;
7501;SDS011;3792;47.740;7.606;2024-01-06T14:52:41;11.27;;;8.00;;
7501;SDS011;3792;47.740;7.606;2024-01-06T14:55:08;9.07;;;6.27;;
7501;SDS011;3792;47.740;7.606;2024-01-06T14:57:36;9.30;;;5.23;;
7501;SDS011;3792;47.740;7.606;2024-01-06T15:00:04;10.23;;;5.27;;
7501;SDS011;3792;47.740;7.606;2024-01-06T15:02:32;11.17;;;7.57;;
7501;SDS011;3792;47.740;7.606;2024-01-06T15:05:01;15.33;;;9.60;;
7501;SDS011;3792;47.740;7.606;2024-01-06T15:07:29;29.20;;;17.57;;
7501;SDS011;3792;47.740;7.606;2024-01-06T15:09:58;25.73;;;16.00;;
7501;SDS011;3792;47.740;7.606;2024-01-06T15:12:26;20.00;;;12.80;;
7501;SDS011;3792;47.740;7.606;2024-01-06T15:14:53;19.70;;;11.77;;
7501;SDS011;3792;47.740;7.606;2024-01-06T15:17:20;18.27;;;11.80;;
7501;SDS011;3792;47.740;7.606;2024-01-06T15:19:47;9.97;;;6.90;;